Terminal Aerodrome Forecast
Issued by NWS

Home | Current Version | Previous Version | Text Only | Print | Product List | Glossary On
Versions: 1 2 3 4 5 6 7 8 9 10 11 12 13 14 15 16 17 18 19 20 21 22 23 24 25 26 27 28 29 30 31 32
000
FTUS41 KBUF 021735
TAFJHW
TAF
KJHW 021735Z 0218/0318 07009G17KT P6SM FEW025 BKN200
     FM021900 04009KT P6SM BKN200
     FM030400 06005KT P6SM SKC
     FM030900 10004KT P6SM SKC
     FM031200 12009KT P6SM SKC
      AMD LTD TO CLD VIS AND WIND=

USA.gov is the U.S. government's official web portal to all federal, state and local government web resources and services.